Time;durP1;ratioP1;P1;durP2;ratioP2;P2;SDS_P1;SDS_P2;PMS_P1;PMS_P2;Temp;Humidity;BMP_temperature;BMP_pressure;BME280_temperature;BME280_humidity;BME280_pressure;Samples;Min_cycle;Max_cycle;Signal;HPM_P1;HPM_P2
2022/08/13 00:01:15;;;;;;;;;;;;;;;-144.99;100.00;61100.13;5070564;28;19925;-70
2022/08/13 00:03:44;;;;;;;;;;;;;;;-144.99;100.00;61100.13;5069791;28;20015;-67
2022/08/13 00:06:11;;;;;;;;;;;;;;;-144.99;100.00;61100.13;5069628;28;20023;-68
2022/08/13 00:08:39;;;;;;;;;;;;;;;-144.99;100.00;61100.13;5069926;28;19924;-67
2022/08/13 00:11:06;;;;;;;;;;;;;;;-144.99;100.00;61100.13;5069971;28;20028;-68
2022/08/13 00:13:32;;;;;;;;;;;;;;;-144.99;100.00;61100.13;5069837;28;20003;-67
2022/08/13 00:16:00;;;;;;;;;;;;;;;-144.99;100.00;61100.13;5071889;28;19947;-66
2022/08/13 00:18:29;;;;;;;;;;;;;;;-144.99;100.00;61100.13;5071591;28;19925;-67
2022/08/13 00:20:58;;;;;;;;;;;;;;;-144.99;100.00;61100.13;5077613;28;19924;-67
2022/08/13 00:23:26;;;;;;;;;;;;;;;-144.99;100.00;61100.13;5085152;28;20189;-68
2022/08/13 00:25:54;;;;;;;;;;;;;;;-144.99;100.00;61100.13;5086915;28;20039;-65
2022/08/13 00:28:21;;;;;;;;;;;;;;;-144.99;100.00;61100.13;5084745;28;19925;-65
2022/08/13 00:30:48;;;;;;;;;;;;;;;-144.99;100.00;61100.13;5075120;28;20011;-64
2022/08/13 00:33:17;;;;;;;;;;;;;;;-144.99;100.00;61100.13;5086900;28;19938;-64
2022/08/13 00:35:44;;;;;;;;;;;;;;;-144.99;100.00;61100.13;5091011;28;19954;-64
2022/08/13 00:38:13;;;;;;;;;;;;;;;-144.99;100.00;61100.13;5088759;28;19924;-65
2022/08/13 00:40:41;;;;;;;;;;;;;;;-144.99;100.00;61100.13;5091041;28;19924;-66
2022/08/13 00:43:08;;;;;;;;;;;;;;;-144.99;100.00;61100.13;5088858;28;20328;-65
2022/08/13 00:45:34;;;;;;;;;;;;;;;-144.99;100.00;61100.13;5091024;28;20016;-66
2022/08/13 00:50:44;;;;;;;;;;;;;;;-144.99;100.00;61100.13;5079676;28;19939;-65
2022/08/13 00:53:17;;;;;;;;;;;;;;;-144.99;100.00;61100.13;5091245;28;20010;-65
2022/08/13 00:55:45;;;;;;;;;;;;;;;-144.99;100.00;61100.13;5089882;28;20014;-65
2022/08/13 00:58:15;;;;;;;;;;;;;;;-144.99;100.00;61100.13;5075297;28;20029;-65
2022/08/13 01:00:42;;;;;;;;;;;;;;;-144.99;100.00;61100.13;5072869;28;19924;-62
2022/08/13 01:03:09;;;;;;;;;;;;;;;-144.99;100.00;61100.13;5072842;28;20023;-61
2022/08/13 01:05:36;;;;;;;;;;;;;;;-144.99;100.00;61100.13;5072756;28;19928;-62
2022/08/13 01:08:03;;;;;;;;;;;;;;;-144.99;100.00;61100.13;5072524;28;20310;-61
2022/08/13 01:10:32;;;;;;;;;;;;;;;-144.99;100.00;61100.13;5072543;28;19928;-61
2022/08/13 01:13:00;;;;;;;;;;;;;;;-144.99;100.00;61100.13;5072900;28;19966;-63
2022/08/13 01:15:27;;;;;;;;;;;;;;;-144.99;100.00;61100.13;5072573;28;20378;-64
2022/08/13 01:17:54;;;;;;;;;;;;;;;-144.99;100.00;61100.13;5079839;28;20412;-62
2022/08/13 01:20:22;;;;;;;;;;;;;;;-144.99;100.00;61100.13;5072761;28;19931;-62
2022/08/13 01:22:52;;;;;;;;;;;;;;;-144.99;100.00;61100.13;5073174;28;20031;-62
2022/08/13 01:25:19;;;;;;;;;;;;;;;-144.99;100.00;61100.13;5073707;28;20330;-66
2022/08/13 01:27:46;;;;;;;;;;;;;;;-144.99;100.00;61100.13;5073173;28;20397;-65
2022/08/13 01:30:15;;;;;;;;;;;;;;;-144.99;100.00;61100.13;5072552;28;19981;-65
2022/08/13 01:32:42;;;;;;;;;;;;;;;-144.99;100.00;61100.13;5071930;28;20421;-63
2022/08/13 01:35:08;;;;;;;;;;;;;;;-144.99;100.00;61100.13;5071555;28;20425;-64
2022/08/13 01:37:37;;;;;;;;;;;;;;;-144.99;100.00;61100.13;5072173;28;19924;-64
2022/08/13 01:40:06;;;;;;;;;;;;;;;-144.99;100.00;61100.13;5066982;28;19971;-66
2022/08/13 01:42:39;;;;;;;;;;;;;;;-144.99;100.00;61100.13;5076204;28;20014;-65
2022/08/13 01:45:06;;;;;;;;;;;;;;;-144.99;100.00;61100.13;5074509;28;19939;-66
2022/08/13 01:50:31;;;;;;;;;;;;;;;-144.99;100.00;61100.13;5071653;28;19931;-66
2022/08/13 01:53:01;;;;;;;;;;;;;;;-144.99;100.00;61100.13;5071686;28;19924;-68
2022/08/13 01:55:39;;;;;;;;;;;;;;;-144.99;100.00;61100.13;5072000;28;19970;-67
2022/08/13 01:58:06;;;;;;;;;;;;;;;-144.99;100.00;61100.13;5072160;28;19924;-67
2022/08/13 02:00:33;;;;;;;;;;;;;;;-144.99;100.00;61100.13;5071871;28;19936;-66
2022/08/13 02:03:01;;;;;;;;;;;;;;;-144.99;100.00;61100.13;5071404;28;19960;-67
2022/08/13 02:05:28;;;;;;;;;;;;;;;-144.99;100.00;61100.13;5071415;28;19924;-67
2022/08/13 02:07:55;;;;;;;;;;;;;;;-144.99;100.00;61100.13;5073884;28;19928;-66
2022/08/13 02:10:21;;;;;;;;;;;;;;;-144.99;100.00;61100.13;5071454;28;20017;-67
2022/08/13 02:12:49;;;;;;;;;;;;;;;-144.99;100.00;61100.13;5076567;28;19924;-65
2022/08/13 02:15:16;;;;;;;;;;;;;;;-144.99;100.00;61100.13;5082442;28;19983;-68
2022/08/13 02:17:43;;;;;;;;;;;;;;;-144.99;100.00;61100.13;5071469;28;19947;-69
2022/08/13 02:20:12;;;;;;;;;;;;;;;-144.99;100.00;61100.13;5079234;28;20317;-68
2022/08/13 02:22:40;;;;;;;;;;;;;;;-144.99;100.00;61100.13;5079210;28;19928;-68
2022/08/13 02:25:07;;;;;;;;;;;;;;;-144.99;100.00;61100.13;5079728;28;19924;-67
2022/08/13 02:27:34;;;;;;;;;;;;;;;-144.99;100.00;61100.13;5085945;28;19983;-67
2022/08/13 02:30:01;;;;;;;;;;;;;;;-144.99;100.00;61100.13;5076700;28;19932;-68
2022/08/13 02:32:28;;;;;;;;;;;;;;;-144.99;100.00;61100.13;5064108;28;19995;-69
2022/08/13 02:34:56;;;;;;;;;;;;;;;-144.99;100.00;61100.13;5069815;28;20007;-68
2022/08/13 02:37:22;;;;;;;;;;;;;;;-144.99;100.00;61100.13;5071026;28;20389;-67
2022/08/13 02:39:49;;;;;;;;;;;;;;;-144.99;100.00;61100.13;5065491;28;20428;-68
2022/08/13 02:42:15;;;;;;;;;;;;;;;-144.99;100.00;61100.13;5075089;28;19924;-68
2022/08/13 02:44:42;;;;;;;;;;;;;;;-144.99;100.00;61100.13;5070822;28;19924;-68
2022/08/13 02:47:13;;;;;;;;;;;;;;;-144.99;100.00;61100.13;5070512;28;20015;-68
2022/08/13 02:49:41;;;;;;;;;;;;;;;-144.99;100.00;61100.13;5073368;28;20014;-68
2022/08/13 02:52:08;;;;;;;;;;;;;;;-144.99;100.00;61100.13;5071134;28;19947;-69
2022/08/13 02:54:37;;;;;;;;;;;;;;;-144.99;100.00;61100.13;5070218;28;20404;-70
2022/08/13 02:57:04;;;;;;;;;;;;;;;-144.99;100.00;61100.13;5070280;28;19998;-68
2022/08/13 02:59:30;;;;;;;;;;;;;;;-144.99;100.00;61100.13;5070075;28;19925;-68
2022/08/13 03:01:57;;;;;;;;;;;;;;;-144.99;100.00;61100.13;5070958;28;20051;-74
2022/08/13 03:04:25;;;;;;;;;;;;;;;-144.99;100.00;61100.13;5072720;28;19924;-72
2022/08/13 03:06:52;;;;;;;;;;;;;;;-144.99;100.00;61100.13;5072985;28;19931;-69
2022/08/13 03:09:20;;;;;;;;;;;;;;;-144.99;100.00;61100.13;5070760;28;19955;-69
2022/08/13 03:11:47;;;;;;;;;;;;;;;-144.99;100.00;61100.13;5069133;28;20143;-67
2022/08/13 03:14:14;;;;;;;;;;;;;;;-144.99;100.00;61100.13;5081931;28;20357;-68
2022/08/13 03:16:40;;;;;;;;;;;;;;;-144.99;100.00;61100.13;5080791;28;19925;-73
2022/08/13 03:19:07;;;;;;;;;;;;;;;-144.99;100.00;61100.13;5074013;28;20396;-63
2022/08/13 03:21:36;;;;;;;;;;;;;;;-144.99;100.00;61100.13;5082282;28;19930;-64
2022/08/13 03:24:07;;;;;;;;;;;;;;;-144.99;100.00;61100.13;5085136;28;19924;-63
2022/08/13 03:26:35;;;;;;;;;;;;;;;-144.99;100.00;61100.13;5082579;28;19924;-63
2022/08/13 03:29:02;;;;;;;;;;;;;;;-144.99;100.00;61100.13;5085096;28;19975;-63
2022/08/13 03:31:29;;;;;;;;;;;;;;;-144.99;100.00;61100.13;5075578;28;19929;-63
2022/08/13 03:33:58;;;;;;;;;;;;;;;-144.99;100.00;61100.13;5084550;28;19928;-64
2022/08/13 03:36:25;;;;;;;;;;;;;;;-144.99;100.00;61100.13;5078879;28;20397;-63
2022/08/13 03:38:53;;;;;;;;;;;;;;;-144.99;100.00;61100.13;5084403;28;20377;-63
2022/08/13 03:41:19;;;;;;;;;;;;;;;-144.99;100.00;61100.13;5075126;28;19968;-63
2022/08/13 03:43:47;;;;;;;;;;;;;;;-144.99;100.00;61100.13;5070210;28;19928;-63
2022/08/13 03:46:14;;;;;;;;;;;;;;;-144.99;100.00;61100.13;5070832;28;20385;-63
2022/08/13 03:48:41;;;;;;;;;;;;;;;-144.99;100.00;61100.13;5084751;28;19946;-63
2022/08/13 03:51:08;;;;;;;;;;;;;;;-144.99;100.00;61100.13;5068837;28;20404;-63
2022/08/13 03:53:35;;;;;;;;;;;;;;;-144.99;100.00;61100.13;5069532;28;19928;-69
2022/08/13 03:56:04;;;;;;;;;;;;;;;-144.99;100.00;61100.13;5069958;28;19974;-69
2022/08/13 03:58:30;;;;;;;;;;;;;;;-144.99;100.00;61100.13;5064712;28;20461;-71
2022/08/13 04:00:57;;;;;;;;;;;;;;;-144.99;100.00;61100.13;5064835;28;19924;-70
2022/08/13 04:03:24;;;;;;;;;;;;;;;-144.99;100.00;61100.13;5080974;28;20316;-69
2022/08/13 04:05:52;;;;;;;;;;;;;;;-144.99;100.00;61100.13;5064955;28;20387;-70
2022/08/13 04:08:19;;;;;;;;;;;;;;;-144.99;100.00;61100.13;5077657;28;19930;-66
2022/08/13 04:10:46;;;;;;;;;;;;;;;-144.99;100.00;61100.13;5071126;28;19934;-67
2022/08/13 04:13:16;;;;;;;;;;;;;;;-144.99;100.00;61100.13;5076525;28;20280;-67
2022/08/13 04:15:43;;;;;;;;;;;;;;;-144.99;100.00;61100.13;5086081;28;19924;-65
2022/08/13 04:18:13;;;;;;;;;;;;;;;-144.99;100.00;61100.13;5080127;28;20347;-67
2022/08/13 04:20:42;;;;;;;;;;;;;;;-144.99;100.00;61100.13;5087000;28;20011;-64
2022/08/13 04:23:16;;;;;;;;;;;;;;;-144.99;100.00;61100.13;5088763;28;19930;-66
2022/08/13 04:25:42;;;;;;;;;;;;;;;-144.99;100.00;61100.13;5089729;28;19931;-65
2022/08/13 04:28:11;;;;;;;;;;;;;;;-144.99;100.00;61100.13;5088070;28;19971;-65
2022/08/13 04:30:41;;;;;;;;;;;;;;;-144.99;100.00;61100.13;5080892;28;19925;-65
2022/08/13 04:33:09;;;;;;;;;;;;;;;-144.99;100.00;61100.13;5085723;28;19935;-65
2022/08/13 04:35:36;;;;;;;;;;;;;;;-144.99;100.00;61100.13;5090416;28;19932;-65
2022/08/13 04:38:02;;;;;;;;;;;;;;;-144.99;100.00;61100.13;5086185;28;20433;-65
2022/08/13 04:40:29;;;;;;;;;;;;;;;-144.99;100.00;61100.13;5090857;28;20044;-65
2022/08/13 04:42:55;;;;;;;;;;;;;;;-144.99;100.00;61100.13;5078132;28;19926;-66
2022/08/13 04:45:22;;;;;;;;;;;;;;;-144.99;100.00;61100.13;5076395;28;20011;-65
2022/08/13 04:47:50;;;;;;;;;;;;;;;-144.99;100.00;61100.13;5084129;28;20365;-65
2022/08/13 04:50:16;;;;;;;;;;;;;;;-144.99;100.00;61100.13;5082420;28;20358;-67
2022/08/13 04:52:43;;;;;;;;;;;;;;;-144.99;100.00;61100.13;5084242;28;20455;-66
2022/08/13 04:55:11;;;;;;;;;;;;;;;-144.99;100.00;61100.13;5090453;28;19930;-66
2022/08/13 04:57:37;;;;;;;;;;;;;;;-144.99;100.00;61100.13;5069999;28;19929;-65
2022/08/13 05:00:05;;;;;;;;;;;;;;;-144.99;100.00;61100.13;5075569;28;19924;-66
2022/08/13 05:02:32;;;;;;;;;;;;;;;-144.99;100.00;61100.13;5069295;28;19924;-67
2022/08/13 05:05:00;;;;;;;;;;;;;;;-144.99;100.00;61100.13;5084918;28;19929;-66
2022/08/13 05:07:26;;;;;;;;;;;;;;;-144.99;100.00;61100.13;5078689;28;19976;-67
2022/08/13 05:09:53;;;;;;;;;;;;;;;-144.99;100.00;61100.13;5076206;28;20015;-66
2022/08/13 05:12:19;;;;;;;;;;;;;;;-144.99;100.00;61100.13;5074838;28;20380;-66
2022/08/13 05:14:46;;;;;;;;;;;;;;;-144.99;100.00;61100.13;5090569;28;19928;-66
2022/08/13 05:17:12;;;;;;;;;;;;;;;-144.99;100.00;61100.13;5082407;28;19943;-66
2022/08/13 05:19:39;;;;;;;;;;;;;;;-144.99;100.00;61100.13;5079747;28;19928;-66
2022/08/13 05:22:07;;;;;;;;;;;;;;;-144.99;100.00;61100.13;5082301;28;20297;-66
2022/08/13 05:24:37;;;;;;;;;;;;;;;-144.99;100.00;61100.13;5086171;28;20476;-66
2022/08/13 05:27:03;;;;;;;;;;;;;;;-144.99;100.00;61100.13;5080649;28;19975;-68
2022/08/13 05:29:30;;;;;;;;;;;;;;;-144.99;100.00;61100.13;5072519;28;20031;-68
2022/08/13 05:31:57;;;;;;;;;;;;;;;-144.99;100.00;61100.13;5074929;28;19978;-68
2022/08/13 05:34:24;;;;;;;;;;;;;;;-144.99;100.00;61100.13;5084797;28;19934;-68
2022/08/13 05:36:52;;;;;;;;;;;;;;;-144.99;100.00;61100.13;5082924;28;19931;-69
2022/08/13 05:39:20;;;;;;;;;;;;;;;-144.99;100.00;61100.13;5083659;28;20797;-68
2022/08/13 05:41:47;;;;;;;;;;;;;;;-144.99;100.00;61100.13;5079712;28;19950;-68
2022/08/13 05:44:14;;;;;;;;;;;;;;;-144.99;100.00;61100.13;5080206;28;19933;-69
2022/08/13 05:46:41;;;;;;;;;;;;;;;-144.99;100.00;61100.13;5083964;28;20296;-68
2022/08/13 05:49:08;;;;;;;;;;;;;;;-144.99;100.00;61100.13;5082435;28;19924;-68
2022/08/13 05:51:34;;;;;;;;;;;;;;;-144.99;100.00;61100.13;5071112;28;19925;-67
2022/08/13 05:54:01;;;;;;;;;;;;;;;-144.99;100.00;61100.13;5071706;28;20019;-68
2022/08/13 05:56:32;;;;;;;;;;;;;;;-144.99;100.00;61100.13;5082475;28;19971;-68
2022/08/13 05:58:59;;;;;;;;;;;;;;;-144.99;100.00;61100.13;5080159;28;20019;-69
2022/08/13 06:04:09;;;;;;;;;;;;;;;-144.99;100.00;61100.13;5067200;28;20062;-67
2022/08/13 06:06:36;;;;;;;;;;;;;;;-144.99;100.00;61100.13;5076469;28;19924;-68
2022/08/13 06:09:04;;;;;;;;;;;;;;;-144.99;100.00;61100.13;5074719;28;19925;-69
2022/08/13 06:11:32;;;;;;;;;;;;;;;-144.99;100.00;61100.13;5074040;28;19930;-69
2022/08/13 06:13:58;;;;;;;;;;;;;;;-144.99;100.00;61100.13;5074139;28;20373;-68
2022/08/13 06:16:28;;;;;;;;;;;;;;;-144.99;100.00;61100.13;5072967;28;19996;-67
2022/08/13 06:18:57;;;;;;;;;;;;;;;-144.99;100.00;61100.13;5079566;28;19971;-68
2022/08/13 06:21:24;;;;;;;;;;;;;;;-144.99;100.00;61100.13;5071867;28;19924;-69
2022/08/13 06:23:51;;;;;;;;;;;;;;;-144.99;100.00;61100.13;5071679;28;20352;-68
2022/08/13 06:26:19;;;;;;;;;;;;;;;-144.99;100.00;61100.13;5071413;28;19925;-68
2022/08/13 06:28:48;;;;;;;;;;;;;;;-144.99;100.00;61100.13;5071415;28;19931;-68
2022/08/13 06:31:16;;;;;;;;;;;;;;;-144.99;100.00;61100.13;5070390;28;19925;-68
2022/08/13 06:33:43;;;;;;;;;;;;;;;-144.99;100.00;61100.13;5083813;28;19946;-68
2022/08/13 06:36:11;;;;;;;;;;;;;;;-144.99;100.00;61100.13;5082694;28;19930;-69
2022/08/13 06:38:41;;;;;;;;;;;;;;;-144.99;100.00;61100.13;5084220;28;20011;-70
2022/08/13 06:41:08;;;;;;;;;;;;;;;-144.99;100.00;61100.13;5082089;28;19924;-68
2022/08/13 06:43:36;;;;;;;;;;;;;;;-144.99;100.00;61100.13;5071095;28;20477;-70
2022/08/13 06:46:05;;;;;;;;;;;;;;;-144.99;100.00;61100.13;5070832;28;20361;-69
2022/08/13 06:48:32;;;;;;;;;;;;;;;-144.99;100.00;61100.13;5070616;28;20365;-70
2022/08/13 06:50:59;;;;;;;;;;;;;;;-144.99;100.00;61100.13;5070991;28;19931;-69
2022/08/13 06:53:25;;;;;;;;;;;;;;;-144.99;100.00;61100.13;5070636;28;20011;-69
2022/08/13 06:55:52;;;;;;;;;;;;;;;-144.99;100.00;61100.13;5070634;28;20030;-67
2022/08/13 06:58:25;;;;;;;;;;;;;;;-144.99;100.00;61100.13;5070437;28;20499;-68
2022/08/13 07:00:53;;;;;;;;;;;;;;;-144.99;100.00;61100.13;5063685;28;19924;-68
2022/08/13 07:03:25;;;;;;;;;;;;;;;-144.99;100.00;61100.13;5070061;28;20412;-67
2022/08/13 07:05:52;;;;;;;;;;;;;;;-144.99;100.00;61100.13;5069177;28;19929;-68
2022/08/13 07:08:19;;;;;;;;;;;;;;;-144.99;100.00;61100.13;5069733;28;20381;-68
2022/08/13 07:11:21;;;;;;;;;;;;;;;-144.99;100.00;61100.13;5064269;28;20266;-68
2022/08/13 07:13:32;;;;;;;;;;;;;;;-144.99;100.00;61100.13;5077835;28;19945;-68
2022/08/13 07:15:58;;;;;;;;;;;;;;;-144.99;100.00;61100.13;5082159;28;20010;-68
2022/08/13 07:18:26;;;;;;;;;;;;;;;-144.99;100.00;61100.13;5071540;28;19928;-68
2022/08/13 07:20:53;;;;;;;;;;;;;;;-144.99;100.00;61100.13;5082027;28;19930;-68
2022/08/13 07:23:19;;;;;;;;;;;;;;;-144.99;100.00;61100.13;5080433;28;20015;-68
2022/08/13 07:25:47;;;;;;;;;;;;;;;-144.99;100.00;61100.13;5083179;28;20011;-68
2022/08/13 07:28:15;;;;;;;;;;;;;;;-144.99;100.00;61100.13;5081639;28;20011;-68
2022/08/13 07:30:45;;;;;;;;;;;;;;;-144.99;100.00;61100.13;5075931;28;19925;-73
2022/08/13 07:33:13;;;;;;;;;;;;;;;-144.99;100.00;61100.13;5077275;28;19929;-73
2022/08/13 07:35:41;;;;;;;;;;;;;;;-144.99;100.00;61100.13;5068842;28;20382;-72
2022/08/13 07:38:07;;;;;;;;;;;;;;;-144.99;100.00;61100.13;5069577;28;20336;-71
2022/08/13 07:40:37;;;;;;;;;;;;;;;-144.99;100.00;61100.13;5073303;28;20383;-72
2022/08/13 07:43:04;;;;;;;;;;;;;;;-144.99;100.00;61100.13;5070086;28;20027;-73
2022/08/13 07:45:30;;;;;;;;;;;;;;;-144.99;100.00;61100.13;5084506;28;20001;-72
2022/08/13 07:47:57;;;;;;;;;;;;;;;-144.99;100.00;61100.13;5079935;28;19924;-72
2022/08/13 07:50:24;;;;;;;;;;;;;;;-144.99;100.00;61100.13;5075687;28;19932;-72
2022/08/13 07:52:57;;;;;;;;;;;;;;;-144.99;100.00;61100.13;5063207;28;20110;-72
2022/08/13 07:55:38;;;;;;;;;;;;;;;-144.99;43.15;51875.38;5087171;28;19935;-73
2022/08/13 07:58:04;;;;;;;;;;;;;;;-144.99;43.29;51893.72;5068561;28;19987;-73
2022/08/13 08:00:31;;;;;;;;;;;;;;;-144.99;42.73;51885.56;5095759;28;20285;-73
2022/08/13 08:03:01;;;;;;;;;;;;;;;-144.99;42.47;51885.56;5095805;28;19966;-73
2022/08/13 08:05:31;;;;;;;;;;;;;;;-144.99;42.95;51889.66;5093021;28;19932;-72
2022/08/13 08:07:59;;;;;;;;;;;;;;;-144.99;41.75;51893.72;5087157;28;20027;-72
2022/08/13 08:10:25;;;;;;;;;;;;;;;-144.99;41.65;51873.34;5092409;28;19928;-72
2022/08/13 08:12:59;;;;;;;;;;;;;;;-144.99;41.24;51852.97;5092717;28;20015;-72
2022/08/13 08:15:27;;;;;;;;;;;;;;;-144.99;40.49;51893.72;5098095;28;20313;-69
2022/08/13 08:17:53;;;;;;;;;;;;;;;-144.99;39.78;51852.97;5093206;28;19963;-71
2022/08/13 08:20:22;;;;;;;;;;;;;;;-144.99;38.83;51852.97;5090024;28;19924;-71
2022/08/13 08:22:49;;;;;;;;;;;;;;;-144.99;39.45;51885.56;5092864;28;20033;-71
2022/08/13 08:25:17;;;;;;;;;;;;;;;-144.99;39.39;51861.13;5097934;28;19930;-71
2022/08/13 08:27:43;;;;;;;;;;;;;;;-144.99;39.25;51877.44;5087774;28;19947;-71
2022/08/13 08:30:15;;;;;;;;;;;;;;;-144.99;38.15;51865.19;5096468;28;19931;-70
2022/08/13 08:32:42;;;;;;;;;;;;;;;-144.99;38.01;51836.66;5088279;28;19964;-71
2022/08/13 08:35:09;;;;;;;;;;;;;;;-144.99;37.89;51840.75;5094805;28;20469;-71
2022/08/13 08:43:10;;;;;;;;;;;;;;;-144.99;36.07;51840.75;5091757;28;20342;-72
2022/08/13 08:45:38;;;;;;;;;;;;;;;-144.99;37.28;51836.66;5093483;28;19931;-72
2022/08/13 08:48:04;;;;;;;;;;;;;;;-144.99;37.46;51848.91;5090348;28;19987;-72
2022/08/13 08:50:30;;;;;;;;;;;;;;;-144.99;37.44;51816.28;5089021;28;19924;-71
2022/08/13 08:55:42;;;;;;;;;;;;;;;-144.99;36.39;51832.59;5092019;28;20035;-71
2022/08/13 08:58:11;;;;;;;;;;;;;;;-144.99;35.56;51836.66;5093858;28;19928;-72
2022/08/13 09:00:39;;;;;;;;;;;;;;;-144.99;35.77;51820.38;5099141;28;19931;-71
2022/08/13 09:03:07;;;;;;;;;;;;;;;-144.99;35.75;51822.41;5095263;28;19925;-72
2022/08/13 09:05:33;;;;;;;;;;;;;;;-144.99;35.20;51810.16;5087706;28;19925;-71
2022/08/13 09:08:01;;;;;;;;;;;;;;;-144.99;34.86;51836.66;5071900;28;19963;-71
2022/08/13 09:10:27;;;;;;;;;;;;;;;-144.99;34.72;51840.75;5080902;28;19924;-72
2022/08/13 09:12:53;;;;;;;;;;;;;;;-144.99;35.27;51863.16;5071480;28;19931;-72
2022/08/13 09:15:22;;;;;;;;;;;;;;;-144.99;34.34;51881.50;5081858;28;19975;-71
2022/08/13 09:17:51;;;;;;;;;;;;;;;-144.99;34.46;51873.34;5071983;28;19935;-72
2022/08/13 09:20:19;;;;;;;;;;;;;;;-144.99;34.22;51875.38;5073904;28;19924;-72
2022/08/13 09:22:45;;;;;;;;;;;;;;;-144.99;33.95;51844.81;5077418;28;19931;-71
2022/08/13 09:25:13;;;;;;;;;;;;;;;-144.99;33.91;51810.16;5077532;28;20035;-72
2022/08/13 09:27:42;;;;;;;;;;;;;;;-144.99;33.23;51820.38;5077676;28;20032;-72
2022/08/13 09:30:10;;;;;;;;;;;;;;;-144.99;33.20;51820.38;5060008;28;20365;-71
2022/08/13 09:32:37;;;;;;;;;;;;;;;-144.99;33.72;51865.19;5076348;28;19924;-71
2022/08/13 09:35:06;;;;;;;;;;;;;;;-144.99;32.71;51840.75;4374049;28;10000840;-72
2022/08/13 09:37:33;;;;;;;;;;;;;;;-144.99;32.94;51832.59;5073366;28;19934;-72
2022/08/13 09:40:02;;;;;;;;;;;;;;;-144.99;33.29;51852.97;5078383;28;19940;-72
2022/08/13 09:42:32;;;;;;;;;;;;;;;-144.99;32.64;51838.72;5075642;28;19955;-72
2022/08/13 09:45:00;;;;;;;;;;;;;;;-144.99;32.85;51865.19;5074572;28;19928;-71
2022/08/13 09:47:26;;;;;;;;;;;;;;;-144.99;32.96;51830.56;5074627;28;20013;-72
2022/08/13 09:49:53;;;;;;;;;;;;;;;-144.99;32.77;51820.38;5068614;28;19963;-72
2022/08/13 09:52:21;;;;;;;;;;;;;;;-144.99;32.59;51822.41;5074755;28;19927;-71
2022/08/13 09:54:48;;;;;;;;;;;;;;;-144.99;32.46;51824.44;5070363;28;19929;-71
2022/08/13 09:57:14;;;;;;;;;;;;;;;-144.99;32.74;51828.50;5073944;28;20339;-71
2022/08/13 09:59:41;;;;;;;;;;;;;;;-144.99;32.06;51814.25;5076944;28;19933;-71
2022/08/13 10:02:09;;;;;;;;;;;;;;;-144.99;32.14;51787.75;5077052;28;19928;-71
2022/08/13 10:04:37;;;;;;;;;;;;;;;-144.99;32.18;51783.69;5072974;28;20381;-72
2022/08/13 10:07:05;;;;;;;;;;;;;;;-144.99;32.11;51779.59;5072929;28;20260;-71
2022/08/13 10:09:34;;;;;;;;;;;;;;;-144.99;31.85;51783.69;5074072;28;20099;-72
2022/08/13 10:12:00;;;;;;;;;;;;;;;-144.99;31.60;51779.59;5070014;28;20292;-72
2022/08/13 10:14:27;;;;;;;;;;;;;;;-144.99;31.46;51812.22;5067586;28;19925;-71
2022/08/13 10:16:53;;;;;;;;;;;;;;;-144.99;31.90;51773.50;5077432;28;19924;-72
2022/08/13 10:19:20;;;;;;;;;;;;;;;-144.99;31.62;51771.44;5070168;28;20363;-71
2022/08/13 10:21:47;;;;;;;;;;;;;;;-144.99;31.08;51738.84;5076465;28;19951;-73
2022/08/13 10:24:14;;;;;;;;;;;;;;;-144.99;31.39;51730.69;5073159;28;20440;-72
2022/08/13 10:26:41;;;;;;;;;;;;;;;-144.99;30.98;51742.91;5073473;28;20024;-71
2022/08/13 10:29:08;;;;;;;;;;;;;;;-144.99;30.53;51718.47;5087567;28;20072;-71
2022/08/13 10:31:34;;;;;;;;;;;;;;;-144.99;30.60;51714.41;5077703;28;20211;-72
2022/08/13 10:34:01;;;;;;;;;;;;;;;-144.99;30.13;51783.69;5072876;28;19931;-72
2022/08/13 10:36:27;;;;;;;;;;;;;;;-144.99;30.01;51694.00;5072066;28;20243;-72
2022/08/13 10:38:54;;;;;;;;;;;;;;;-144.99;29.87;51694.00;5074195;28;20322;-73
2022/08/13 10:41:21;;;;;;;;;;;;;;;-144.99;29.75;51718.47;5074131;28;20224;-73
2022/08/13 10:43:48;;;;;;;;;;;;;;;-144.99;29.78;51677.72;5074360;28;20019;-72
2022/08/13 10:46:16;;;;;;;;;;;;;;;-144.99;29.66;51683.81;5075798;28;19947;-71
2022/08/13 10:48:43;;;;;;;;;;;;;;;-144.99;29.60;51685.88;5076275;28;20219;-72
2022/08/13 10:51:10;;;;;;;;;;;;;;;-144.99;30.28;51712.34;5073533;28;19938;-71
2022/08/13 10:56:21;;;;;;;;;;;;;;;-144.99;29.71;51708.28;5074376;28;19936;-72
2022/08/13 10:58:49;;;;;;;;;;;;;;;-144.99;29.78;51645.09;5077957;28;19939;-72
2022/08/13 11:01:15;;;;;;;;;;;;;;;-144.99;29.78;51634.91;5067063;28;19932;-71
2022/08/13 11:03:44;;;;;;;;;;;;;;;-144.99;29.28;51645.09;5067329;28;19924;-72
2022/08/13 11:06:12;;;;;;;;;;;;;;;-144.99;28.81;51653.25;5067286;28;19936;-71
2022/08/13 11:08:39;;;;;;;;;;;;;;;-144.99;29.19;51641.03;5075969;28;20357;-72
2022/08/13 11:11:06;;;;;;;;;;;;;;;-144.99;29.55;51661.41;5067200;28;20031;-71
2022/08/13 11:13:32;;;;;;;;;;;;;;;-144.99;29.97;51795.91;5075615;28;20430;-71
2022/08/13 11:16:00;;;;;;;;;;;;;;;-144.99;29.67;51836.66;5071601;28;20350;-71
2022/08/13 11:18:28;;;;;;;;;;;;;;;-144.99;30.13;51732.72;5077417;28;19935;-71
2022/08/13 11:21:03;;;;;;;;;;;;;;;-144.99;29.81;51665.50;5078511;28;20373;-72
2022/08/13 11:23:30;;;;;;;;;;;;;;;-144.99;29.89;51663.44;5078955;28;20178;-71
2022/08/13 11:25:56;;;;;;;;;;;;;;;-144.99;29.79;51677.72;5083005;28;20023;-72
2022/08/13 11:28:23;;;;;;;;;;;;;;;-144.99;29.76;51641.03;5085749;28;20026;-71
2022/08/13 11:30:50;;;;;;;;;;;;;;;-144.99;30.00;51645.09;5079778;28;20015;-73
2022/08/13 11:33:18;;;;;;;;;;;;;;;-144.99;29.63;51639.00;5079001;28;19938;-72
2022/08/13 11:35:44;;;;;;;;;;;;;;;-144.99;29.69;51673.63;5075915;28;19934;-71
2022/08/13 11:38:12;;;;;;;;;;;;;;;-144.99;30.07;51673.63;5084467;28;20060;-71
2022/08/13 11:40:39;;;;;;;;;;;;;;;-144.99;29.91;51655.28;5079810;28;20249;-71
2022/08/13 11:43:06;;;;;;;;;;;;;;;-144.99;29.78;51636.97;5077178;28;20268;-72
2022/08/13 11:45:32;;;;;;;;;;;;;;;-144.99;29.35;51583.97;5082133;28;20320;-72
2022/08/13 11:47:59;;;;;;;;;;;;;;;-144.99;29.70;51628.81;5072272;28;20199;-71
2022/08/13 11:50:26;;;;;;;;;;;;;;;-144.99;29.22;51596.19;5076872;28;20297;-71
2022/08/13 11:52:53;;;;;;;;;;;;;;;-144.99;29.06;51600.28;5066795;28;20432;-72
2022/08/13 11:55:19;;;;;;;;;;;;;;;-144.99;28.56;51539.16;5082389;28;20452;-72
2022/08/13 11:57:46;;;;;;;;;;;;;;;-144.99;28.08;51596.19;5082267;28;19928;-71
2022/08/13 12:00:14;;;;;;;;;;;;;;;-144.99;28.48;51575.81;5078599;28;19981;-72
2022/08/13 12:02:41;;;;;;;;;;;;;;;-144.99;28.24;51559.53;5078734;28;19935;-72
2022/08/13 12:05:07;;;;;;;;;;;;;;;-144.99;27.85;51588.06;5078473;28;19929;-71
2022/08/13 12:07:39;;;;;;;;;;;;;;;-144.99;29.39;51671.59;5068035;28;20393;-71
2022/08/13 12:10:06;;;;;;;;;;;;;;;-144.99;29.52;51677.72;5086238;28;20317;-71
2022/08/13 12:12:32;;;;;;;;;;;;;;;-144.99;30.27;51706.25;5071640;28;19932;-71
2022/08/13 12:14:59;;;;;;;;;;;;;;;-144.99;29.65;51657.34;5085197;28;20455;-71
2022/08/13 12:17:27;;;;;;;;;;;;;;;-144.99;29.37;51590.09;5070160;28;19943;-71
2022/08/13 12:19:53;;;;;;;;;;;;;;;-144.99;29.15;51685.88;5075424;28;19964;-72
2022/08/13 12:22:20;;;;;;;;;;;;;;;-144.99;28.68;51592.13;5071988;28;19928;-71
2022/08/13 12:24:48;;;;;;;;;;;;;;;-144.99;28.20;51624.72;5085594;28;19939;-72
2022/08/13 12:27:14;;;;;;;;;;;;;;;-144.99;28.35;51604.34;5084572;28;19932;-74
2022/08/13 12:29:40;;;;;;;;;;;;;;;-144.99;28.85;51600.28;5081388;28;19928;-72
2022/08/13 12:32:07;;;;;;;;;;;;;;;-144.99;28.86;51624.72;5071572;28;19924;-71
2022/08/13 12:34:36;;;;;;;;;;;;;;;-144.99;28.58;51624.72;5080430;28;20127;-72
2022/08/13 12:37:02;;;;;;;;;;;;;;;-144.99;28.97;51649.19;5082507;28;19928;-72
2022/08/13 12:39:29;;;;;;;;;;;;;;;-144.99;29.40;51698.09;5086338;28;20011;-72
2022/08/13 12:41:57;;;;;;;;;;;;;;;-144.99;30.29;51716.44;5075526;28;19924;-72